Time;durP1;ratioP1;P1;durP2;ratioP2;P2;SDS_P1;SDS_P2;PMS_P1;PMS_P2;Temp;Humidity;BMP_temperature;BMP_pressure;BME280_temperature;BME280_humidity;BME280_pressure;Samples;Min_cycle;Max_cycle;Signal;HPM_P1;HPM_P2
2021/11/21 00:01:55;;;;;;;56.87;23.00;;;7.70;99.90;;;;;;5125667;27;20194;-70
2021/11/21 00:04:26;;;;;;;61.40;22.77;;;7.80;99.90;;;;;;5130502;27;20193;-69
2021/11/21 00:06:55;;;;;;;63.00;23.43;;;7.80;99.90;;;;;;5143627;27;20748;-69
2021/11/21 00:09:23;;;;;;;61.23;22.80;;;7.80;99.90;;;;;;5159422;27;20193;-69
2021/11/21 00:11:52;;;;;;;57.13;22.60;;;7.80;99.90;;;;;;5151726;27;20232;-69
2021/11/21 00:14:20;;;;;;;52.47;21.17;;;7.80;99.90;;;;;;5150128;27;20254;-69
2021/11/21 00:16:52;;;;;;;49.67;20.57;;;7.80;99.90;;;;;;5146622;27;20647;-69
2021/11/21 00:19:21;;;;;;;51.43;21.20;;;7.80;99.90;;;;;;5130781;27;20246;-69
2021/11/21 00:21:50;;;;;;;55.00;20.97;;;7.80;99.90;;;;;;5146357;27;20185;-70
2021/11/21 00:24:19;;;;;;;57.20;21.40;;;7.80;99.90;;;;;;5138165;27;20221;-69
2021/11/21 00:26:47;;;;;;;49.13;20.37;;;7.80;99.90;;;;;;5127158;27;20206;-69
2021/11/21 00:29:15;;;;;;;55.73;20.27;;;7.80;99.90;;;;;;5143918;27;20247;-70
2021/11/21 00:31:44;;;;;;;48.27;20.17;;;7.80;99.90;;;;;;5136333;27;20521;-69
2021/11/21 00:34:13;;;;;;;55.77;20.60;;;7.80;99.90;;;;;;5152979;27;20202;-69
2021/11/21 00:36:42;;;;;;;47.40;19.07;;;7.80;99.90;;;;;;5141600;27;20316;-69
2021/11/21 00:39:10;;;;;;;42.37;17.03;;;7.80;99.90;;;;;;5146841;27;20634;-69
2021/11/21 00:41:39;;;;;;;40.73;17.93;;;7.80;99.90;;;;;;5139728;27;20284;-69
2021/11/21 00:44:10;;;;;;;40.80;17.27;;;7.80;99.90;;;;;;5148100;27;20294;-69
2021/11/21 00:46:41;;;;;;;39.80;17.43;;;7.80;99.90;;;;;;5140189;27;20299;-70
2021/11/21 00:49:14;;;;;;;37.03;16.30;;;7.80;99.90;;;;;;5147867;27;20198;-70
2021/11/21 00:51:45;;;;;;;39.63;16.63;;;7.80;99.90;;;;;;5148600;27;20245;-69
2021/11/21 00:54:23;;;;;;;38.20;16.07;;;7.70;99.90;;;;;;5130145;27;20726;-70
2021/11/21 00:56:51;;;;;;;37.40;15.43;;;7.70;99.90;;;;;;5139174;27;20221;-69
2021/11/21 00:59:20;;;;;;;40.37;16.40;;;7.70;99.90;;;;;;5145110;27;20272;-69
2021/11/21 01:01:52;;;;;;;33.70;15.30;;;7.70;99.90;;;;;;5136854;27;20194;-69
2021/11/21 01:04:21;;;;;;;39.73;16.27;;;7.80;99.90;;;;;;5127589;27;20185;-69
2021/11/21 01:06:51;;;;;;;34.37;15.27;;;7.80;99.90;;;;;;5123502;27;20205;-69
2021/11/21 01:09:24;;;;;;;34.23;15.03;;;7.80;99.90;;;;;;5123973;27;20195;-67
2021/11/21 01:11:53;;;;;;;36.57;15.90;;;7.80;99.90;;;;;;5146814;27;20800;-70
2021/11/21 01:14:22;;;;;;;31.47;14.63;;;7.80;99.90;;;;;;5160429;27;20265;-69
2021/11/21 01:16:50;;;;;;;37.40;15.40;;;7.80;99.90;;;;;;5155543;27;20201;-69
2021/11/21 01:19:19;;;;;;;34.80;14.23;;;7.80;99.90;;;;;;5137274;27;20280;-67
2021/11/21 01:21:49;;;;;;;33.67;15.13;;;7.80;99.90;;;;;;5136681;27;20194;-70
2021/11/21 01:24:19;;;;;;;32.77;15.17;;;7.80;99.90;;;;;;5144001;27;20198;-69
2021/11/21 01:26:47;;;;;;;30.93;13.83;;;7.80;99.90;;;;;;5140633;27;20257;-70
2021/11/21 01:29:16;;;;;;;31.70;15.00;;;7.80;99.90;;;;;;5144888;27;20208;-69
2021/11/21 01:31:47;;;;;;;31.47;15.07;;;7.80;99.90;;;;;;5141697;27;20213;-69
2021/11/21 01:34:16;;;;;;;32.43;15.87;;;7.80;99.90;;;;;;5125100;27;20190;-69
2021/11/21 01:36:45;;;;;;;32.10;14.60;;;7.80;99.90;;;;;;5139076;27;20194;-69
2021/11/21 01:39:14;;;;;;;31.00;14.57;;;7.80;99.90;;;;;;5147043;27;20221;-69
2021/11/21 01:41:44;;;;;;;33.47;14.83;;;7.70;99.90;;;;;;5121656;27;20214;-69
2021/11/21 01:44:15;;;;;;;34.10;14.73;;;7.70;99.90;;;;;;5127317;27;20233;-69
2021/11/21 01:46:44;;;;;;;36.47;15.63;;;7.80;99.90;;;;;;5147063;27;20211;-69
2021/11/21 01:49:13;;;;;;;36.13;15.97;;;7.80;99.90;;;;;;5135700;27;20212;-69
2021/11/21 01:51:42;;;;;;;34.37;16.43;;;7.80;99.90;;;;;;5150735;27;20197;-70
2021/11/21 01:54:11;;;;;;;37.13;15.37;;;7.80;99.90;;;;;;5143196;27;20197;-70
2021/11/21 01:56:40;;;;;;;32.90;15.07;;;7.80;99.90;;;;;;5148648;27;20284;-69
2021/11/21 01:59:10;;;;;;;36.23;15.47;;;7.80;99.90;;;;;;5142340;27;20209;-70
2021/11/21 02:01:39;;;;;;;35.87;16.07;;;7.80;99.90;;;;;;5128830;27;20712;-69
2021/11/21 02:04:08;;;;;;;37.97;16.40;;;7.80;99.90;;;;;;5145049;27;20194;-69
2021/11/21 02:06:36;;;;;;;33.83;15.23;;;7.80;99.90;;;;;;5149952;27;20205;-69
2021/11/21 02:09:06;;;;;;;36.43;15.83;;;7.80;99.90;;;;;;5146915;27;20213;-69
2021/11/21 02:11:37;;;;;;;37.27;16.50;;;7.80;99.90;;;;;;5127208;27;20670;-70
2021/11/21 02:14:06;;;;;;;38.97;17.50;;;7.80;99.90;;;;;;5138516;27;20198;-69
2021/11/21 02:16:36;;;;;;;40.00;16.83;;;7.80;99.90;;;;;;5147888;27;20189;-69
2021/11/21 02:19:05;;;;;;;39.73;16.90;;;7.80;99.90;;;;;;5126638;27;20186;-70
2021/11/21 02:21:35;;;;;;;40.03;17.67;;;7.80;99.90;;;;;;5141972;27;20205;-69
2021/11/21 02:24:04;;;;;;;40.87;17.63;;;7.80;99.90;;;;;;5144592;27;20280;-70
2021/11/21 02:26:33;;;;;;;46.90;17.90;;;7.80;99.90;;;;;;5121458;27;20203;-69
2021/11/21 02:29:02;;;;;;;44.57;18.77;;;7.80;99.90;;;;;;5140485;27;20265;-69
2021/11/21 02:31:31;;;;;;;51.63;19.10;;;7.80;99.90;;;;;;5126037;27;20212;-70
2021/11/21 02:34:00;;;;;;;44.30;18.37;;;7.80;99.90;;;;;;5134877;27;20754;-69
2021/11/21 02:36:29;;;;;;;41.77;18.70;;;7.80;99.90;;;;;;5153338;27;20269;-69
2021/11/21 02:38:59;;;;;;;45.93;18.57;;;7.80;99.90;;;;;;5153179;27;20196;-69
2021/11/21 02:41:28;;;;;;;47.43;18.77;;;7.80;99.90;;;;;;5151053;27;20210;-69
2021/11/21 02:43:57;;;;;;;50.63;19.73;;;7.80;99.90;;;;;;5141029;27;20229;-69
2021/11/21 02:46:25;;;;;;;47.40;20.10;;;7.80;99.90;;;;;;5150451;27;20623;-69
2021/11/21 02:48:54;;;;;;;48.13;19.70;;;7.80;99.90;;;;;;5152261;27;20205;-69
2021/11/21 02:51:23;;;;;;;51.37;20.67;;;7.80;99.90;;;;;;5131155;27;20285;-68
2021/11/21 02:53:52;;;;;;;43.93;19.63;;;7.80;99.90;;;;;;5156981;27;20201;-69
2021/11/21 02:56:22;;;;;;;51.87;20.63;;;7.90;99.90;;;;;;5149650;27;20278;-69
2021/11/21 02:58:51;;;;;;;51.20;19.70;;;7.80;99.90;;;;;;5145739;27;20224;-70
2021/11/21 03:01:22;;;;;;;48.63;20.50;;;7.80;99.90;;;;;;5132016;27;20221;-69
2021/11/21 03:03:51;;;;;;;48.57;20.20;;;7.80;99.90;;;;;;5146984;27;20280;-69
2021/11/21 03:06:20;;;;;;;53.77;21.07;;;7.90;99.90;;;;;;5144030;27;20251;-69
2021/11/21 03:08:49;;;;;;;46.40;20.10;;;7.90;99.90;;;;;;5146700;27;20747;-69
2021/11/21 03:11:29;;;;;;;50.30;20.47;;;7.80;99.90;;;;;;5143530;27;20246;-69
2021/11/21 03:13:59;;;;;;;49.03;20.73;;;7.80;99.90;;;;;;5164988;27;20439;-69
2021/11/21 03:16:28;;;;;;;51.67;19.80;;;7.80;99.90;;;;;;5150760;27;20284;-69
2021/11/21 03:18:56;;;;;;;49.80;20.23;;;7.80;99.90;;;;;;5153476;27;20212;-70
2021/11/21 03:21:26;;;;;;;51.63;20.17;;;7.80;99.90;;;;;;5133656;27;20702;-69
2021/11/21 03:23:55;;;;;;;54.33;20.23;;;7.80;99.90;;;;;;5150291;27;20202;-70
2021/11/21 03:26:25;;;;;;;46.93;20.33;;;7.80;99.90;;;;;;5152156;27;20201;-68
2021/11/21 03:28:55;;;;;;;50.93;20.33;;;7.90;99.90;;;;;;5145669;27;20256;-69
2021/11/21 03:31:23;;;;;;;50.43;21.30;;;7.90;99.90;;;;;;5155191;27;20221;-68
2021/11/21 03:33:52;;;;;;;49.40;19.67;;;7.90;99.90;;;;;;5147108;27;20535;-69
2021/11/21 03:36:20;;;;;;;50.37;20.17;;;7.80;99.90;;;;;;5148426;27;20226;-70
2021/11/21 03:38:49;;;;;;;49.13;20.60;;;7.90;99.90;;;;;;5145082;27;20182;-69
2021/11/21 03:41:18;;;;;;;47.57;20.43;;;7.90;99.90;;;;;;5150377;27;20330;-69
2021/11/21 03:43:47;;;;;;;54.30;21.47;;;7.90;99.90;;;;;;5143723;27;20716;-69
2021/11/21 03:46:17;;;;;;;48.17;21.00;;;7.80;99.90;;;;;;5154937;27;20241;-69
2021/11/21 03:48:49;;;;;;;49.53;20.17;;;7.80;99.90;;;;;;5133214;27;20286;-69
2021/11/21 03:51:17;;;;;;;48.47;20.17;;;7.90;99.90;;;;;;5153076;27;20578;-69
2021/11/21 03:53:46;;;;;;;54.00;19.97;;;7.80;99.90;;;;;;5144985;27;20274;-69
2021/11/21 03:56:15;;;;;;;47.93;20.07;;;7.90;99.90;;;;;;5151346;27;20201;-69
2021/11/21 03:58:43;;;;;;;49.60;21.07;;;7.90;99.90;;;;;;5143590;27;20213;-70
2021/11/21 04:01:12;;;;;;;43.97;19.73;;;7.90;99.90;;;;;;5149085;27;20205;-69
2021/11/21 04:03:43;;;;;;;52.87;20.80;;;7.80;99.90;;;;;;5145212;27;20673;-69
2021/11/21 04:06:12;;;;;;;48.80;20.37;;;7.80;99.90;;;;;;5132201;27;20221;-69
2021/11/21 04:08:42;;;;;;;47.50;19.87;;;7.80;99.90;;;;;;5152630;27;20277;-69
2021/11/21 04:11:11;;;;;;;46.80;20.93;;;7.80;99.90;;;;;;5148298;27;20617;-69
2021/11/21 04:13:39;;;;;;;53.47;20.53;;;7.80;99.90;;;;;;5131143;27;20212;-69
2021/11/21 04:16:08;;;;;;;46.37;19.73;;;7.90;99.90;;;;;;5132261;27;20182;-69
2021/11/21 04:18:37;;;;;;;44.57;20.00;;;7.90;99.90;;;;;;5155413;27;20592;-69
2021/11/21 04:21:07;;;;;;;44.20;19.90;;;7.90;99.90;;;;;;5149714;27;20543;-68
2021/11/21 04:23:36;;;;;;;45.70;19.83;;;7.90;99.90;;;;;;5157623;27;20592;-70
2021/11/21 04:26:04;;;;;;;47.73;19.40;;;8.00;99.90;;;;;;5151503;27;20670;-69
2021/11/21 04:28:34;;;;;;;43.80;19.77;;;7.90;99.90;;;;;;5147954;27;20622;-69
2021/11/21 04:31:02;;;;;;;47.27;20.10;;;7.90;99.90;;;;;;5134431;27;20595;-69
2021/11/21 04:33:31;;;;;;;39.67;18.50;;;8.00;99.90;;;;;;5151023;27;20192;-69
2021/11/21 04:35:59;;;;;;;39.70;19.70;;;8.00;99.90;;;;;;5161328;27;20671;-69
2021/11/21 04:38:32;;;;;;;46.50;19.90;;;8.00;99.90;;;;;;5113431;27;20214;-69
2021/11/21 04:41:00;;;;;;;44.87;19.47;;;8.00;99.90;;;;;;5149724;27;20193;-69
2021/11/21 04:43:29;;;;;;;39.23;18.87;;;8.00;99.90;;;;;;5155482;27;20736;-69
2021/11/21 04:46:00;;;;;;;45.60;20.63;;;8.00;99.90;;;;;;5152067;27;20754;-69
2021/11/21 04:48:31;;;;;;;45.23;19.20;;;8.00;99.90;;;;;;5156814;27;20296;-70
2021/11/21 04:51:00;;;;;;;45.63;19.57;;;8.00;99.90;;;;;;5155875;27;20695;-69
2021/11/21 04:53:30;;;;;;;41.47;19.33;;;8.00;99.90;;;;;;5140071;27;20516;-69
2021/11/21 04:56:01;;;;;;;45.50;19.93;;;8.00;99.90;;;;;;5151797;27;20202;-69
2021/11/21 04:58:30;;;;;;;46.43;19.30;;;8.00;99.90;;;;;;5146637;27;20200;-69
2021/11/21 05:00:59;;;;;;;41.70;18.90;;;8.10;99.90;;;;;;5151368;27;20189;-69
2021/11/21 05:03:28;;;;;;;42.80;19.57;;;8.10;99.90;;;;;;5148970;27;20212;-68
2021/11/21 05:05:57;;;;;;;42.27;18.43;;;8.10;99.90;;;;;;5129383;27;20658;-70
2021/11/21 05:08:25;;;;;;;40.97;18.33;;;8.10;99.90;;;;;;5149197;27;20211;-69
2021/11/21 05:10:55;;;;;;;43.67;19.33;;;8.10;99.90;;;;;;5128082;27;20787;-69
2021/11/21 05:13:24;;;;;;;42.83;19.37;;;8.10;99.90;;;;;;5127614;27;20197;-69
2021/11/21 05:15:52;;;;;;;42.83;19.03;;;8.10;99.90;;;;;;5131165;27;20197;-69
2021/11/21 05:18:21;;;;;;;42.33;18.83;;;8.10;99.90;;;;;;5148741;27;20678;-69
2021/11/21 05:20:50;;;;;;;39.63;18.97;;;8.10;99.90;;;;;;5150701;27;20199;-69
2021/11/21 05:23:18;;;;;;;42.47;19.43;;;8.10;99.90;;;;;;5143883;27;20185;-68
2021/11/21 05:25:47;;;;;;;42.83;19.50;;;8.10;99.90;;;;;;5141225;27;20705;-69
2021/11/21 05:28:17;;;;;;;44.40;19.83;;;8.10;99.90;;;;;;5153103;27;20647;-68
2021/11/21 05:30:48;;;;;;;44.43;20.00;;;8.10;99.90;;;;;;5152670;27;20200;-69
2021/11/21 05:33:20;;;;;;;43.13;19.97;;;8.10;99.90;;;;;;5152353;27;20192;-69
2021/11/21 05:35:48;;;;;;;46.30;20.07;;;8.10;99.90;;;;;;5150996;27;20285;-69
2021/11/21 05:38:17;;;;;;;43.47;19.87;;;8.10;99.90;;;;;;5148915;27;20189;-69
2021/11/21 05:40:45;;;;;;;46.90;20.57;;;8.10;99.90;;;;;;5124156;27;20188;-70
2021/11/21 05:43:14;;;;;;;40.60;19.73;;;8.10;99.90;;;;;;5129104;27;20241;-70
2021/11/21 05:45:46;;;;;;;43.13;19.33;;;8.10;99.90;;;;;;5126715;27;20292;-70
2021/11/21 05:48:15;;;;;;;40.70;19.43;;;8.10;99.90;;;;;;5147228;27;20201;-69
2021/11/21 05:50:43;;;;;;;44.30;19.97;;;8.10;99.90;;;;;;5150836;27;20305;-69
2021/11/21 05:53:12;;;;;;;41.00;19.53;;;8.10;99.90;;;;;;5147623;27;20227;-69
2021/11/21 05:55:40;;;;;;;41.43;19.80;;;8.10;99.90;;;;;;5150899;27;20203;-70
2021/11/21 05:58:09;;;;;;;38.73;18.97;;;8.20;99.90;;;;;;5153132;27;20201;-69
2021/11/21 06:00:39;;;;;;;45.13;20.40;;;8.10;99.90;;;;;;5140123;27;20712;-69
2021/11/21 06:03:15;;;;;;;39.50;19.50;;;8.10;99.90;;;;;;5144374;27;20296;-69
2021/11/21 06:06:21;;;;;;;40.57;19.17;;;8.10;99.90;;;;;;5152352;27;20196;-69
2021/11/21 06:08:50;;;;;;;39.17;19.13;;;8.20;99.90;;;;;;5138677;27;20189;-70
2021/11/21 06:11:19;;;;;;;42.70;20.87;;;8.20;99.90;;;;;;5147300;27;20280;-70
2021/11/21 06:13:49;;;;;;;40.60;19.87;;;8.20;99.90;;;;;;5149881;27;20676;-70
2021/11/21 06:16:17;;;;;;;48.17;20.53;;;8.20;99.90;;;;;;5144248;27;20194;-69
2021/11/21 06:18:48;;;;;;;44.57;19.93;;;8.20;99.90;;;;;;5154916;27;20194;-69
2021/11/21 06:21:16;;;;;;;49.67;21.40;;;8.20;99.90;;;;;;5145397;27;20202;-70
2021/11/21 06:23:48;;;;;;;41.03;21.17;;;8.20;99.90;;;;;;5146191;27;20188;-70
2021/11/21 06:26:17;;;;;;;45.63;21.27;;;8.20;99.90;;;;;;5143835;27;20205;-69
2021/11/21 06:28:46;;;;;;;43.53;20.10;;;8.20;99.90;;;;;;5154800;27;20279;-69
2021/11/21 06:31:14;;;;;;;49.60;22.63;;;8.20;99.90;;;;;;5133943;27;20726;-69
2021/11/21 06:33:43;;;;;;;51.17;21.60;;;8.20;99.90;;;;;;5156551;27;20610;-70
2021/11/21 06:36:13;;;;;;;52.20;21.87;;;8.20;99.90;;;;;;5147833;27;20738;-70
2021/11/21 06:38:42;;;;;;;52.13;23.67;;;8.30;99.90;;;;;;5143971;27;20201;-69
2021/11/21 06:41:11;;;;;;;52.70;22.07;;;8.30;99.90;;;;;;5146727;27;20217;-70
2021/11/21 06:43:39;;;;;;;54.20;23.27;;;8.30;99.90;;;;;;5146681;27;20229;-68
2021/11/21 06:46:09;;;;;;;49.63;22.20;;;8.30;99.90;;;;;;5141176;27;20270;-70
2021/11/21 06:48:37;;;;;;;53.50;22.87;;;8.20;99.90;;;;;;5151247;27;20190;-70
2021/11/21 06:51:06;;;;;;;52.27;21.97;;;8.30;99.90;;;;;;5144631;27;20289;-70
2021/11/21 06:53:38;;;;;;;52.53;22.43;;;8.30;99.90;;;;;;5141616;27;20210;-70
2021/11/21 06:56:06;;;;;;;44.90;21.00;;;8.30;99.90;;;;;;5126036;27;20194;-70
2021/11/21 06:58:34;;;;;;;54.20;22.47;;;8.30;99.90;;;;;;5145377;27;20240;-70
2021/11/21 07:01:04;;;;;;;55.40;23.23;;;8.30;99.90;;;;;;5140605;27;20185;-70
2021/11/21 07:03:33;;;;;;;46.50;21.33;;;8.30;99.90;;;;;;5142530;27;20935;-69
2021/11/21 07:06:01;;;;;;;45.73;20.70;;;8.30;99.90;;;;;;5117271;27;20226;-71
2021/11/21 07:08:30;;;;;;;40.97;19.23;;;8.30;99.90;;;;;;5148056;27;20185;-70
2021/11/21 07:11:02;;;;;;;65.83;29.30;;;8.30;99.90;;;;;;5147319;27;20224;-70
2021/11/21 07:13:30;;;;;;;53.10;23.57;;;8.30;99.90;;;;;;5154295;27;20193;-70
2021/11/21 07:15:59;;;;;;;46.37;19.80;;;8.30;99.90;;;;;;5152161;27;20224;-70
2021/11/21 07:18:27;;;;;;;39.33;18.13;;;8.30;99.90;;;;;;5128212;27;20192;-69
2021/11/21 07:20:56;;;;;;;38.17;17.20;;;8.30;99.90;;;;;;5152448;27;20229;-70
2021/11/21 07:23:25;;;;;;;37.07;17.20;;;8.30;99.90;;;;;;5155214;27;20678;-70
2021/11/21 07:25:53;;;;;;;42.73;18.17;;;8.30;99.90;;;;;;5136799;27;20228;-70
2021/11/21 07:28:23;;;;;;;44.80;19.37;;;8.30;99.90;;;;;;5157428;27;20201;-70
2021/11/21 07:30:51;;;;;;;65.87;30.63;;;8.30;99.90;;;;;;5156591;27;20300;-70
2021/11/21 07:33:20;;;;;;;123.63;55.43;;;8.30;99.90;;;;;;5157798;27;20193;-70
2021/11/21 07:35:48;;;;;;;112.93;50.77;;;8.30;99.90;;;;;;5145414;27;20838;-70
2021/11/21 07:38:17;;;;;;;96.77;44.23;;;8.30;99.90;;;;;;5143554;27;20197;-70
2021/11/21 07:40:45;;;;;;;69.47;32.80;;;8.40;99.90;;;;;;5159142;27;20246;-69
2021/11/21 07:43:14;;;;;;;64.43;28.93;;;8.40;99.90;;;;;;5158544;27;20279;-70
2021/11/21 07:45:46;;;;;;;61.70;26.80;;;8.40;99.90;;;;;;5144708;27;20264;-70
2021/11/21 07:48:15;;;;;;;91.40;35.80;;;8.40;99.90;;;;;;5159290;27;20205;-70
2021/11/21 07:50:43;;;;;;;78.20;30.57;;;8.40;99.90;;;;;;5151462;27;20244;-70
2021/11/21 07:53:12;;;;;;;68.70;27.23;;;8.40;99.90;;;;;;5157353;27;20201;-70
2021/11/21 07:55:40;;;;;;;75.77;30.27;;;8.50;99.90;;;;;;5154930;27;20275;-69
2021/11/21 07:58:09;;;;;;;78.43;32.10;;;8.40;99.90;;;;;;5147968;27;20191;-70
2021/11/21 08:00:38;;;;;;;107.07;38.77;;;8.40;99.90;;;;;;5146975;27;20239;-70
2021/11/21 08:03:10;;;;;;;129.73;44.30;;;8.50;99.90;;;;;;5150606;27;20212;-70
2021/11/21 08:05:39;;;;;;;126.60;41.93;;;8.50;99.90;;;;;;5148709;27;20325;-70
2021/11/21 08:08:08;;;;;;;126.97;44.67;;;8.40;99.90;;;;;;5155421;27;20751;-70
2021/11/21 08:10:37;;;;;;;87.63;36.50;;;8.50;99.90;;;;;;5153988;27;20205;-70
2021/11/21 08:13:08;;;;;;;69.80;32.33;;;8.40;99.90;;;;;;5150188;27;20184;-70
2021/11/21 08:15:37;;;;;;;59.60;24.60;;;8.40;99.90;;;;;;5143793;27;20224;-70
2021/11/21 08:18:07;;;;;;;56.30;22.97;;;8.50;99.90;;;;;;5137047;27;20198;-70
2021/11/21 08:20:35;;;;;;;53.83;23.33;;;8.50;99.90;;;;;;5146567;27;20600;-70
2021/11/21 08:23:04;;;;;;;51.80;22.63;;;8.50;99.90;;;;;;5144297;27;20209;-70
2021/11/21 08:25:35;;;;;;;50.03;21.67;;;8.50;99.90;;;;;;5119638;27;20283;-70
2021/11/21 08:28:04;;;;;;;52.50;23.47;;;8.60;99.90;;;;;;5124124;27;20245;-70
2021/11/21 08:30:36;;;;;;;53.60;23.53;;;8.60;99.90;;;;;;5149855;27;20221;-70
2021/11/21 08:33:05;;;;;;;52.53;22.77;;;8.70;99.90;;;;;;5153577;27;20193;-70
2021/11/21 08:35:35;;;;;;;53.10;22.23;;;8.70;99.90;;;;;;5148346;27;20259;-70
2021/11/21 08:38:05;;;;;;;23.77;9.97;;;8.70;99.90;;;;;;5145882;27;20208;-71
2021/11/21 08:40:34;;;;;;;16.90;7.53;;;8.50;99.90;;;;;;5147441;27;20185;-70
2021/11/21 08:43:04;;;;;;;8.90;4.93;;;8.30;99.90;;;;;;5136462;27;20340;-70
2021/11/21 08:45:33;;;;;;;9.93;3.43;;;8.20;99.90;;;;;;5149485;27;20189;-70
2021/11/21 08:48:02;;;;;;;8.63;3.83;;;8.10;99.90;;;;;;5144568;27;20293;-70
2021/11/21 08:50:34;;;;;;;11.23;3.80;;;8.00;99.90;;;;;;5128164;27;20762;-70
2021/11/21 08:53:03;;;;;;;7.27;4.07;;;8.00;99.90;;;;;;5147752;27;20205;-70
2021/11/21 08:55:31;;;;;;;8.37;3.93;;;8.00;99.90;;;;;;5157852;27;20887;-70
2021/11/21 08:58:00;;;;;;;8.77;3.23;;;8.00;99.90;;;;;;5142324;27;20705;-70
2021/11/21 09:00:28;;;;;;;2.83;2.60;;;8.00;99.90;;;;;;5147177;27;20637;-70
2021/11/21 09:02:57;;;;;;;4.83;2.97;;;8.00;99.90;;;;;;5139576;27;20285;-70
2021/11/21 09:05:26;;;;;;;3.37;2.90;;;8.00;99.90;;;;;;5149090;27;20232;-70
2021/11/21 09:08:14;;;;;;;4.87;2.70;;;8.00;99.90;;;;;;5147986;27;20552;-70
2021/11/21 09:10:42;;;;;;;7.33;3.20;;;8.10;99.90;;;;;;5144358;27;20765;-70
2021/11/21 09:13:11;;;;;;;4.33;2.37;;;8.10;99.90;;;;;;5150673;27;20198;-70
2021/11/21 09:15:40;;;;;;;3.77;2.33;;;8.10;99.90;;;;;;5141203;27;20189;-70
2021/11/21 09:18:09;;;;;;;4.83;1.90;;;8.20;99.90;;;;;;5140148;27;20258;-70
2021/11/21 09:20:38;;;;;;;2.50;1.93;;;8.20;99.90;;;;;;5127644;27;20827;-69
2021/11/21 09:23:10;;;;;;;6.93;1.90;;;8.10;99.90;;;;;;5134209;27;20212;-71
2021/11/21 09:25:40;;;;;;;2.00;1.90;;;8.20;99.90;;;;;;5141900;27;20880;-70
2021/11/21 09:28:09;;;;;;;4.47;1.73;;;8.20;99.90;;;;;;5150351;27;20197;-70
2021/11/21 09:30:37;;;;;;;4.03;1.67;;;8.20;99.90;;;;;;5144158;27;20213;-70
2021/11/21 09:33:10;;;;;;;3.40;2.03;;;8.20;99.90;;;;;;5152662;27;20196;-70
2021/11/21 09:35:39;;;;;;;2.17;1.60;;;8.20;99.90;;;;;;5146196;27;20245;-70
2021/11/21 09:38:08;;;;;;;2.30;1.80;;;8.20;99.90;;;;;;5141744;27;20231;-70
2021/11/21 09:40:36;;;;;;;3.53;1.93;;;8.30;99.90;;;;;;5144147;27;20225;-71
2021/11/21 09:43:06;;;;;;;5.90;2.30;;;8.30;99.90;;;;;;5124783;27;20243;-71
2021/11/21 09:45:35;;;;;;;3.80;2.47;;;8.30;99.90;;;;;;5145208;27;20652;-70
2021/11/21 09:48:06;;;;;;;2.30;2.03;;;8.40;99.90;;;;;;5154475;27;20197;-70
2021/11/21 09:50:39;;;;;;;3.53;2.40;;;8.40;99.90;;;;;;5138063;27;20599;-71
2021/11/21 09:53:08;;;;;;;4.60;2.47;;;8.40;99.90;;;;;;5139434;27;20220;-70
2021/11/21 09:55:38;;;;;;;4.57;3.13;;;8.40;99.90;;;;;;5139152;27;20193;-70
2021/11/21 09:58:08;;;;;;;4.07;3.13;;;8.30;99.90;;;;;;5145821;27;20792;-70
2021/11/21 10:00:37;;;;;;;3.87;2.53;;;8.40;99.90;;;;;;5143679;27;20193;-71
2021/11/21 10:03:08;;;;;;;3.67;2.70;;;8.40;99.90;;;;;;5117278;27;20200;-70
2021/11/21 10:05:38;;;;;;;7.47;4.80;;;8.50;99.90;;;;;;5120393;27;20243;-71
2021/11/21 10:08:08;;;;;;;4.20;3.80;;;8.50;99.90;;;;;;5138764;27;20193;-70
2021/11/21 10:10:45;;;;;;;4.13;2.60;;;8.50;99.90;;;;;;5138539;27;20267;-70
2021/11/21 10:13:31;;;;;;;2.93;2.73;;;8.60;99.90;;;;;;5123209;27;20202;-71
2021/11/21 10:16:19;;;;;;;5.03;2.60;;;8.60;99.90;;;;;;5141391;27;20254;-71
2021/11/21 10:18:50;;;;;;;5.40;2.90;;;8.60;99.90;;;;;;5137846;27;20197;-71
2021/11/21 10:21:21;;;;;;;22.40;7.70;;;8.60;99.90;;;;;;5140671;27;20667;-70
2021/11/21 10:24:09;;;;;;;9.47;5.03;;;8.60;99.90;;;;;;5130348;27;20275;-71
2021/11/21 10:26:38;;;;;;;7.03;3.10;;;8.60;99.90;;;;;;5138922;27;20242;-69
2021/11/21 10:29:30;;;;;;;28.67;8.97;;;8.60;99.90;;;;;;5134605;27;20232;-71
2021/11/21 10:31:59;;;;;;;24.97;7.83;;;8.60;99.90;;;;;;5130236;27;20218;-70
2021/11/21 10:34:29;;;;;;;19.70;7.03;;;8.70;99.90;;;;;;5118110;27;20286;-70
2021/11/21 10:37:09;;;;;;;20.87;7.63;;;8.70;99.90;;;;;;5137983;27;20236;-70
2021/11/21 10:40:01;;;;;;;22.43;10.10;;;8.70;99.90;;;;;;5139833;27;20838;-71
2021/11/21 10:42:32;;;;;;;7.27;4.23;;;8.70;99.90;;;;;;5145421;27;20246;-70
2021/11/21 10:45:07;;;;;;;5.73;2.97;;;8.70;99.90;;;;;;5130156;27;20194;-71
2021/11/21 10:47:48;;;;;;;10.13;3.20;;;8.80;99.90;;;;;;5145588;27;20238;-71
2021/11/21 10:50:27;;;;;;;6.57;2.60;;;8.80;99.90;;;;;;5134651;27;20247;-71
2021/11/21 10:52:57;;;;;;;9.07;3.50;;;8.80;99.90;;;;;;5144787;27;20746;-71
2021/11/21 10:55:26;;;;;;;8.47;2.37;;;8.80;99.90;;;;;;5142080;27;20193;-71
2021/11/21 10:57:54;;;;;;;11.97;3.07;;;8.80;99.90;;;;;;5129177;27;20226;-71
2021/11/21 11:00:26;;;;;;;7.93;2.10;;;8.80;99.90;;;;;;5153080;27;20250;-70
2021/11/21 11:02:55;;;;;;;10.10;2.10;;;8.70;99.90;;;;;;5141592;27;20251;-70
2021/11/21 11:05:25;;;;;;;11.20;2.17;;;8.80;99.90;;;;;;5150388;27;20671;-71
2021/11/21 11:07:55;;;;;;;5.90;1.97;;;8.80;99.90;;;;;;5155096;27;20302;-71
2021/11/21 11:10:25;;;;;;;4.70;1.97;;;8.90;99.90;;;;;;5151116;27;20194;-70
2021/11/21 11:12:58;;;;;;;4.83;2.00;;;8.90;99.90;;;;;;5128775;27;20213;-71
2021/11/21 11:15:30;;;;;;;5.67;2.30;;;9.00;99.90;;;;;;5154741;27;20202;-70
2021/11/21 11:17:58;;;;;;;6.40;2.47;;;9.00;99.90;;;;;;5153517;27;20250;-70
2021/11/21 11:20:29;;;;;;;9.50;2.40;;;9.10;99.90;;;;;;5131334;27;20271;-70
2021/11/21 11:22:58;;;;;;;5.33;2.40;;;9.20;99.90;;;;;;5143911;27;20190;-70
2021/11/21 11:25:29;;;;;;;6.53;2.30;;;9.30;99.90;;;;;;5144448;27;20189;-70
2021/11/21 11:28:03;;;;;;;6.63;2.10;;;9.40;99.90;;;;;;5151794;27;20204;-71
2021/11/21 11:30:36;;;;;;;3.50;2.20;;;9.50;99.90;;;;;;5129455;27;20560;-69
2021/11/21 11:33:07;;;;;;;6.37;2.23;;;9.60;99.90;;;;;;5147651;27;20811;-71
2021/11/21 11:35:39;;;;;;;7.80;2.20;;;9.70;99.90;;;;;;5148736;27;20265;-71
2021/11/21 11:38:16;;;;;;;6.90;2.10;;;9.80;99.90;;;;;;5151079;27;20267;-70
2021/11/21 11:40:52;;;;;;;4.23;1.93;;;9.80;99.90;;;;;;5152340;27;20205;-71
2021/11/21 11:43:42;;;;;;;4.77;2.17;;;9.80;99.90;;;;;;5149918;27;20779;-70
2021/11/21 11:46:29;;;;;;;7.03;2.60;;;9.80;99.90;;;;;;5148508;27;20239;-71
2021/11/21 11:49:00;;;;;;;6.93;2.40;;;9.90;99.90;;;;;;5144750;27;21013;-71
2021/11/21 11:51:52;;;;;;;7.63;2.73;;;9.90;99.90;;;;;;5150069;27;20188;-71
2021/11/21 11:54:29;;;;;;;7.57;2.60;;;9.90;99.90;;;;;;5134230;27;20200;-70
2021/11/21 11:57:00;;;;;;;11.40;2.63;;;9.80;99.90;;;;;;5144214;27;20278;-71
2021/11/21 11:59:36;;;;;;;3.63;2.50;;;9.80;99.90;;;;;;5147248;27;20702;-71
2021/11/21 12:02:08;;;;;;;5.90;2.63;;;9.80;99.90;;;;;;5137311;27;20220;-71
2021/11/21 12:04:52;;;;;;;5.30;2.97;;;9.80;99.90;;;;;;5149120;27;20212;-71
2021/11/21 12:07:33;;;;;;;5.93;2.97;;;9.90;99.90;;;;;;5145082;27;20199;-71
2021/11/21 12:10:09;;;;;;;4.23;2.60;;;9.90;99.90;;;;;;5144525;27;20196;-69
2021/11/21 12:12:53;;;;;;;5.80;2.93;;;9.90;99.90;;;;;;5123323;27;20270;-71
2021/11/21 12:15:29;;;;;;;6.30;2.37;;;9.90;99.90;;;;;;5152318;27;20198;-71
2021/11/21 12:18:00;;;;;;;9.83;2.77;;;9.90;99.90;;;;;;5153837;27;20193;-71
2021/11/21 12:20:58;;;;;;;10.37;2.83;;;9.90;99.90;;;;;;5144655;27;20201;-71
2021/11/21 12:24:07;;;;;;;8.10;2.63;;;9.90;99.90;;;;;;5110501;27;20269;-71
2021/11/21 12:26:43;;;;;;;9.37;2.60;;;9.90;99.90;;;;;;5143934;27;20217;-69
2021/11/21 12:29:35;;;;;;;5.67;2.87;;;9.90;99.90;;;;;;5154226;27;20345;-71
2021/11/21 12:32:25;;;;;;;4.63;2.53;;;9.90;99.90;;;;;;5144869;27;20743;-71
2021/11/21 12:34:56;;;;;;;7.00;2.50;;;9.90;99.90;;;;;;5150414;27;20687;-70
2021/11/21 12:37:39;;;;;;;5.70;2.70;;;9.90;99.90;;;;;;5129446;27;20208;-71
2021/11/21 12:40:18;;;;;;;10.23;2.97;;;9.90;99.90;;;;;;5149438;27;20193;-71
2021/11/21 12:42:54;;;;;;;5.17;2.53;;;9.80;99.90;;;;;;5135621;27;20276;-70
2021/11/21 12:45:24;;;;;;;12.13;3.10;;;9.80;99.90;;;;;;5147363;27;20200;-71
2021/11/21 12:47:55;;;;;;;11.07;2.90;;;9.80;99.90;;;;;;5151731;27;20209;-71
2021/11/21 12:50:27;;;;;;;6.90;2.70;;;9.80;99.90;;;;;;5148726;27;20201;-71
2021/11/21 12:53:02;;;;;;;5.40;3.10;;;9.80;99.90;;;;;;5145800;27;20218;-71
2021/11/21 12:55:32;;;;;;;4.73;2.63;;;9.80;99.90;;;;;;5136372;27;20204;-71
2021/11/21 12:58:01;;;;;;;8.53;2.57;;;9.80;99.90;;;;;;5124354;27;20221;-71
2021/11/21 13:00:32;;;;;;;7.47;2.63;;;9.90;99.90;;;;;;5127534;27;20247;-70
2021/11/21 13:03:04;;;;;;;5.57;2.50;;;10.00;99.90;;;;;;5145680;27;20193;-69